createdAt,value
2019-01-28T00:01:25.834Z,963.37
2019-01-28T00:02:25.707Z,963.38
2019-01-28T00:04:18.589Z,963.41
2019-01-28T00:05:18.474Z,963.41
2019-01-28T00:07:11.815Z,963.51
2019-01-28T00:08:11.204Z,963.48
2019-01-28T00:10:04.078Z,963.52
2019-01-28T00:11:03.944Z,963.52
2019-01-28T00:12:56.828Z,963.58
2019-01-28T00:13:56.708Z,963.56
2019-01-28T00:15:49.588Z,963.54
2019-01-28T00:16:49.449Z,963.54
2019-01-28T00:18:42.336Z,963.49
2019-01-28T00:19:42.193Z,963.52
2019-01-28T00:21:35.078Z,963.49
2019-01-28T00:22:34.946Z,963.47
2019-01-28T00:24:27.826Z,963.52
2019-01-28T00:25:27.692Z,963.44
2019-01-28T00:27:20.576Z,963.46
2019-01-28T00:28:20.458Z,963.44
2019-01-28T00:30:13.856Z,963.42
2019-01-28T00:31:13.704Z,963.44
2019-01-28T00:33:06.586Z,963.42
2019-01-28T00:34:06.450Z,963.40
2019-01-28T00:35:59.855Z,963.42
2019-01-28T00:36:59.720Z,963.45
2019-01-28T00:38:52.600Z,963.51
2019-01-28T00:39:52.485Z,963.49
2019-01-28T00:41:45.358Z,963.54
2019-01-28T00:42:45.220Z,963.55
2019-01-28T00:44:38.612Z,963.52
2019-01-28T00:45:38.482Z,963.54
2019-01-28T00:47:31.357Z,963.58
2019-01-28T00:48:31.237Z,963.64
2019-01-28T00:50:24.117Z,963.68
2019-01-28T00:51:24.017Z,963.61
2019-01-28T00:53:16.889Z,963.68
2019-01-28T00:54:16.737Z,963.67
2019-01-28T00:56:09.619Z,963.70
2019-01-28T00:57:09.470Z,963.67
2019-01-28T00:59:02.571Z,963.71
2019-01-28T01:00:02.231Z,963.80
2019-01-28T01:01:55.133Z,963.81
2019-01-28T01:02:54.977Z,963.80
2019-01-28T01:04:47.905Z,963.75
2019-01-28T01:05:47.723Z,963.78
2019-01-28T01:07:40.616Z,963.84
2019-01-28T01:08:40.473Z,963.80
2019-01-28T01:10:33.347Z,963.87
2019-01-28T01:11:33.245Z,963.85
2019-01-28T01:13:26.115Z,963.91
2019-01-28T01:14:25.983Z,963.85
2019-01-28T01:16:18.899Z,963.88
2019-01-28T01:17:18.726Z,963.88
2019-01-28T01:19:11.599Z,963.87
2019-01-28T01:20:11.475Z,963.87
2019-01-28T01:22:04.352Z,963.93
2019-01-28T01:23:04.255Z,963.91
2019-01-28T01:24:57.098Z,963.95
2019-01-28T01:25:56.970Z,963.95
2019-01-28T01:27:49.871Z,964.10
2019-01-28T01:28:49.720Z,964.00
2019-01-28T01:30:42.608Z,964.01
2019-01-28T01:31:42.478Z,964.04
2019-01-28T01:33:35.386Z,963.98
2019-01-28T01:34:35.238Z,964.00
2019-01-28T01:36:28.096Z,963.99
2019-01-28T01:37:27.974Z,964.02
2019-01-28T01:39:20.861Z,963.98
2019-01-28T01:40:21.222Z,964.01
2019-01-28T01:42:14.117Z,964.00
2019-01-28T01:43:13.984Z,963.96
2019-01-28T01:45:06.864Z,963.98
2019-01-28T01:46:06.726Z,963.98
2019-01-28T01:47:59.688Z,964.02
2019-01-28T01:48:59.490Z,964.03
2019-01-28T01:50:52.386Z,964.00
2019-01-28T01:51:52.242Z,964.01
2019-01-28T01:53:45.114Z,964.02
2019-01-28T01:54:44.980Z,963.99
2019-01-28T01:56:37.894Z,963.96
2019-01-28T01:57:37.731Z,963.98
2019-01-28T01:59:30.618Z,963.97
2019-01-28T02:00:30.496Z,963.91
2019-01-28T02:02:23.409Z,963.89
2019-01-28T02:03:23.238Z,963.89
2019-01-28T02:05:16.129Z,963.86
2019-01-28T02:06:15.977Z,963.91
2019-01-28T02:08:08.874Z,963.92
2019-01-28T02:09:08.730Z,963.87
2019-01-28T02:11:01.607Z,963.92
2019-01-28T02:12:01.495Z,963.99
2019-01-28T02:13:54.370Z,963.92
2019-01-28T02:14:54.238Z,963.98
2019-01-28T02:16:47.151Z,963.88
2019-01-28T02:17:46.981Z,963.92
2019-01-28T02:19:39.955Z,963.92
2019-01-28T02:20:39.838Z,963.88
2019-01-28T02:22:32.744Z,963.91
2019-01-28T02:23:32.580Z,963.92
2019-01-28T02:25:25.462Z,964.06
2019-01-28T02:26:25.352Z,964.08
2019-01-28T02:28:18.243Z,964.02
2019-01-28T02:29:18.101Z,963.96
2019-01-28T02:31:10.957Z,964.00
2019-01-28T02:32:10.831Z,963.86
2019-01-28T02:34:03.844Z,963.88
2019-01-28T02:35:03.573Z,963.90
2019-01-28T02:36:56.461Z,963.83
2019-01-28T02:37:56.348Z,963.93
2019-01-28T02:39:49.314Z,963.94
2019-01-28T02:40:49.186Z,963.99
2019-01-28T02:42:42.052Z,964.01
2019-01-28T02:43:41.927Z,963.85
2019-01-28T02:45:34.847Z,963.86
2019-01-28T02:46:34.693Z,963.81
2019-01-28T02:48:27.571Z,963.87
2019-01-28T02:49:27.467Z,963.85
2019-01-28T02:51:20.342Z,963.92
2019-01-28T02:52:20.179Z,963.91
2019-01-28T02:54:13.076Z,963.97
2019-01-28T02:55:12.932Z,963.97
2019-01-28T02:57:05.830Z,963.85
2019-01-28T02:58:05.675Z,963.81
2019-01-28T02:59:58.561Z,963.81
2019-01-28T03:00:58.437Z,963.75
2019-01-28T03:02:51.315Z,963.87
2019-01-28T03:03:51.185Z,963.89
2019-01-28T03:05:44.068Z,963.88
2019-01-28T03:06:43.955Z,963.99
2019-01-28T03:08:36.812Z,963.99
2019-01-28T03:09:36.695Z,963.95
2019-01-28T03:11:29.560Z,964.02
2019-01-28T03:12:29.428Z,963.87
2019-01-28T03:14:22.338Z,964.01
2019-01-28T03:15:22.197Z,963.90
2019-01-28T03:17:15.054Z,963.86
2019-01-28T03:18:14.933Z,963.79
2019-01-28T03:20:07.847Z,963.86
2019-01-28T03:21:07.701Z,963.84
2019-01-28T03:23:00.604Z,963.72
2019-01-28T03:24:00.426Z,963.79
2019-01-28T03:25:53.300Z,963.94
2019-01-28T03:26:53.176Z,963.72
2019-01-28T03:28:46.069Z,963.78
2019-01-28T03:29:45.941Z,963.85
2019-01-28T03:31:38.817Z,963.71
2019-01-28T03:32:38.668Z,963.80
2019-01-28T03:34:31.557Z,963.75
2019-01-28T03:35:31.434Z,963.76
2019-01-28T03:37:24.615Z,963.78
2019-01-28T03:38:24.479Z,963.73
2019-01-28T03:40:17.366Z,963.72
2019-01-28T03:41:17.227Z,963.71
2019-01-28T03:43:10.158Z,963.70
2019-01-28T03:44:10.000Z,963.69
2019-01-28T03:46:02.880Z,963.62
2019-01-28T03:47:02.758Z,963.63
2019-01-28T03:48:55.743Z,963.68
2019-01-28T03:49:55.593Z,963.60
2019-01-28T03:51:48.471Z,963.63
2019-01-28T03:52:48.327Z,963.64
2019-01-28T03:54:41.327Z,963.69
2019-01-28T03:55:41.185Z,963.79
2019-01-28T03:57:34.091Z,963.77
2019-01-28T03:58:33.945Z,963.85
2019-01-28T04:00:26.823Z,963.81
2019-01-28T04:01:26.845Z,963.76
2019-01-28T04:03:19.568Z,963.78
2019-01-28T04:04:19.457Z,963.68
2019-01-28T04:06:12.321Z,963.71
2019-01-28T04:07:12.189Z,963.60
2019-01-28T04:09:05.072Z,963.68
2019-01-28T04:10:04.935Z,963.55
2019-01-28T04:11:57.817Z,963.60
2019-01-28T04:12:57.690Z,963.61
2019-01-28T04:14:50.571Z,963.55
2019-01-28T04:15:50.437Z,963.48
2019-01-28T04:17:43.823Z,963.48
2019-01-28T04:18:43.689Z,963.50
2019-01-28T04:20:36.487Z,963.51
2019-01-28T04:21:36.345Z,963.47
2019-01-28T04:23:29.228Z,963.51
2019-01-28T04:24:29.087Z,963.49
2019-01-28T04:26:21.966Z,963.44
2019-01-28T04:27:21.851Z,963.48
2019-01-28T04:29:14.855Z,963.50
2019-01-28T04:30:14.703Z,963.48
2019-01-28T04:32:07.594Z,963.46
2019-01-28T04:33:07.444Z,963.43
2019-01-28T04:35:00.318Z,963.42
2019-01-28T04:36:00.195Z,963.36
2019-01-28T04:37:53.066Z,963.30
2019-01-28T04:38:52.986Z,963.27
2019-01-28T04:40:45.740Z,963.31
2019-01-28T04:41:45.657Z,963.21
2019-01-28T04:43:38.470Z,963.26
2019-01-28T04:44:38.342Z,963.27
2019-01-28T04:46:31.235Z,963.23
2019-01-28T04:47:31.098Z,963.29
2019-01-28T04:49:24.855Z,963.19
2019-01-28T04:50:23.833Z,963.30
2019-01-28T04:52:16.717Z,963.18
2019-01-28T04:53:16.624Z,963.18
2019-01-28T04:55:09.474Z,963.13
2019-01-28T04:56:09.372Z,963.16
2019-01-28T04:58:02.139Z,963.09
2019-01-28T04:59:01.989Z,963.16
2019-01-28T05:00:54.864Z,963.09
2019-01-28T05:01:54.747Z,963.12
2019-01-28T05:03:47.612Z,963.09
2019-01-28T05:04:47.490Z,963.07
2019-01-28T05:06:40.373Z,963.07
2019-01-28T05:07:40.231Z,963.15
2019-01-28T05:09:33.239Z,963.08
2019-01-28T05:10:33.081Z,963.09
2019-01-28T05:12:25.962Z,963.00
2019-01-28T05:13:25.835Z,963.04
2019-01-28T05:15:18.729Z,963.04
2019-01-28T05:16:18.580Z,963.05
2019-01-28T05:18:11.463Z,962.93
2019-01-28T05:19:11.338Z,962.94
2019-01-28T05:21:04.387Z,962.92
2019-01-28T05:22:04.206Z,962.88
2019-01-28T05:23:57.070Z,962.91
2019-01-28T05:24:56.923Z,962.96
2019-01-28T05:26:49.824Z,962.96
2019-01-28T05:27:49.676Z,962.96
2019-01-28T05:29:42.609Z,963.03
2019-01-28T05:30:42.421Z,962.93
2019-01-28T05:32:35.318Z,962.95
2019-01-28T05:33:35.230Z,962.92
2019-01-28T05:35:28.071Z,962.83
2019-01-28T05:36:27.923Z,962.87
2019-01-28T05:38:21.331Z,962.83
2019-01-28T05:39:21.190Z,962.84
2019-01-28T05:41:14.071Z,962.69
2019-01-28T05:42:13.935Z,962.73
2019-01-28T05:44:06.819Z,962.78
2019-01-28T05:45:06.691Z,962.71
2019-01-28T05:46:59.609Z,962.79
2019-01-28T05:47:59.458Z,962.79
2019-01-28T05:49:52.350Z,962.71
2019-01-28T05:50:52.205Z,962.68
2019-01-28T05:52:45.077Z,962.78
2019-01-28T05:53:44.993Z,962.73
2019-01-28T05:55:37.712Z,962.77
2019-01-28T05:56:37.595Z,962.75
2019-01-28T05:58:30.488Z,962.79
2019-01-28T05:59:30.356Z,962.79
2019-01-28T06:01:23.346Z,962.83
2019-01-28T06:02:25.141Z,962.86
2019-01-28T06:04:16.080Z,962.82
2019-01-28T06:05:15.940Z,962.79
2019-01-28T06:07:08.830Z,962.78
2019-01-28T06:08:08.710Z,962.78
2019-01-28T06:10:01.784Z,962.72
2019-01-28T06:11:01.656Z,962.72
2019-01-28T06:12:54.450Z,962.67
2019-01-28T06:13:54.300Z,962.71
2019-01-28T06:15:47.160Z,962.71
2019-01-28T06:16:47.035Z,962.79
2019-01-28T06:18:39.918Z,962.70
2019-01-28T06:19:39.806Z,962.79
2019-01-28T06:21:32.660Z,962.72
2019-01-28T06:22:32.542Z,962.75
2019-01-28T06:24:25.339Z,962.74
2019-01-28T06:25:25.191Z,962.77
2019-01-28T06:27:17.964Z,962.77
2019-01-28T06:28:17.838Z,962.73
2019-01-28T06:30:10.706Z,962.76
2019-01-28T06:31:10.573Z,962.81
2019-01-28T06:33:03.392Z,962.82
2019-01-28T06:34:03.245Z,962.78
2019-01-28T06:35:56.009Z,962.81
2019-01-28T06:36:55.882Z,962.83
2019-01-28T06:38:48.768Z,962.79
2019-01-28T06:39:48.633Z,962.83
2019-01-28T06:41:41.409Z,962.82
2019-01-28T06:42:41.284Z,962.78
2019-01-28T06:44:34.051Z,962.75
2019-01-28T06:45:33.926Z,962.72
2019-01-28T06:47:26.705Z,962.71
2019-01-28T06:48:26.627Z,962.68
2019-01-28T06:50:19.366Z,962.66
2019-01-28T06:51:19.222Z,962.71
2019-01-28T06:53:12.080Z,962.59
2019-01-28T06:54:11.870Z,962.61
2019-01-28T06:56:04.647Z,962.57
2019-01-28T06:57:04.511Z,962.60
2019-01-28T06:58:57.289Z,962.54
2019-01-28T06:59:57.157Z,962.60
2019-01-28T07:01:50.377Z,962.59
2019-01-28T07:02:50.209Z,962.57
2019-01-28T07:04:43.006Z,962.67
2019-01-28T07:05:42.869Z,962.58
2019-01-28T07:07:35.673Z,962.65
2019-01-28T07:08:35.529Z,962.72
2019-01-28T07:10:28.317Z,962.59
2019-01-28T07:11:28.189Z,962.65
2019-01-28T07:13:21.086Z,962.76
2019-01-28T07:14:20.918Z,962.75
2019-01-28T07:16:13.806Z,962.71
2019-01-28T07:17:13.670Z,962.77
2019-01-28T07:19:06.445Z,962.74
2019-01-28T07:20:06.315Z,962.77
2019-01-28T07:21:59.077Z,962.72
2019-01-28T07:22:58.959Z,962.76
2019-01-28T07:24:51.819Z,962.80
2019-01-28T07:25:51.700Z,962.70
2019-01-28T07:27:44.480Z,962.84
2019-01-28T07:28:44.355Z,962.74
2019-01-28T07:30:37.123Z,962.72
2019-01-28T07:31:37.011Z,962.71
2019-01-28T07:33:29.870Z,962.64
2019-01-28T07:34:29.747Z,962.67
2019-01-28T07:36:22.551Z,962.62
2019-01-28T07:37:22.390Z,962.66
2019-01-28T07:39:15.167Z,962.63
2019-01-28T07:40:15.046Z,962.63
2019-01-28T07:42:07.818Z,962.67
2019-01-28T07:43:07.700Z,962.60
2019-01-28T07:45:00.460Z,962.69
2019-01-28T07:46:00.346Z,962.61
2019-01-28T07:48:02.800Z,962.65
2019-01-28T07:48:56.062Z,962.67
2019-01-28T07:50:48.832Z,962.65
2019-01-28T07:51:48.712Z,962.68
2019-01-28T07:53:41.578Z,962.75
2019-01-28T07:54:41.458Z,962.77
2019-01-28T07:56:34.231Z,962.88
2019-01-28T07:57:34.106Z,962.74
2019-01-28T07:59:26.874Z,962.81
2019-01-28T08:00:26.774Z,962.86
2019-01-28T08:02:20.132Z,962.79
2019-01-28T08:03:20.041Z,962.84
2019-01-28T08:05:12.780Z,962.76
2019-01-28T08:06:12.662Z,962.75
2019-01-28T08:08:05.449Z,962.76
2019-01-28T08:09:05.302Z,962.86
2019-01-28T08:10:58.078Z,962.81
2019-01-28T08:11:57.965Z,962.83
2019-01-28T08:13:52.445Z,962.80
2019-01-28T08:14:50.714Z,962.85
2019-01-28T08:16:43.479Z,962.88
2019-01-28T08:17:43.344Z,962.88
2019-01-28T08:19:36.127Z,962.94
2019-01-28T08:20:35.993Z,962.94
2019-01-28T08:22:28.765Z,962.93
2019-01-28T08:23:28.654Z,962.93
2019-01-28T08:25:21.422Z,962.93
2019-01-28T08:26:21.312Z,962.90
2019-01-28T08:28:14.062Z,962.96
2019-01-28T08:29:13.933Z,962.97
2019-01-28T08:31:06.717Z,962.93
2019-01-28T08:32:06.584Z,962.98
2019-01-28T08:33:59.351Z,962.93
2019-01-28T08:34:59.233Z,962.90
2019-01-28T08:36:52.637Z,962.91
2019-01-28T08:37:52.499Z,962.85
2019-01-28T08:39:45.268Z,962.94
2019-01-28T08:40:45.731Z,962.87
2019-01-28T08:42:37.923Z,962.84
2019-01-28T08:43:37.790Z,962.93
2019-01-28T08:45:30.627Z,962.90
2019-01-28T08:46:30.457Z,962.88
2019-01-28T08:48:23.239Z,962.81
2019-01-28T08:49:23.089Z,962.91
2019-01-28T08:51:15.976Z,962.76
2019-01-28T08:52:15.852Z,962.79
2019-01-28T08:54:08.617Z,962.65
2019-01-28T08:55:08.488Z,962.74
2019-01-28T08:57:01.397Z,962.67
2019-01-28T08:58:01.215Z,962.63
2019-01-28T08:59:54.119Z,962.55
2019-01-28T09:00:53.981Z,962.63
2019-01-28T09:02:46.774Z,962.51
2019-01-28T09:03:46.634Z,962.57
2019-01-28T09:05:39.403Z,962.55
2019-01-28T09:06:39.268Z,962.54
2019-01-28T09:08:32.097Z,962.46
2019-01-28T09:09:31.926Z,962.50
2019-01-28T09:11:24.800Z,962.44
2019-01-28T09:12:24.678Z,962.38
2019-01-28T09:14:17.455Z,962.45
2019-01-28T09:15:17.318Z,962.44
2019-01-28T09:17:10.182Z,962.37
2019-01-28T09:18:10.120Z,962.34
2019-01-28T09:20:02.830Z,962.35
2019-01-28T09:21:02.722Z,962.33
2019-01-28T09:22:55.596Z,962.37
2019-01-28T09:23:55.475Z,962.39
2019-01-28T09:25:48.344Z,962.39
2019-01-28T09:26:48.226Z,962.27
2019-01-28T09:28:41.094Z,962.43
2019-01-28T09:29:40.963Z,962.43
2019-01-28T09:31:33.850Z,962.46
2019-01-28T09:32:33.704Z,962.54
2019-01-28T09:34:26.588Z,962.50
2019-01-28T09:35:26.454Z,962.51
2019-01-28T09:37:19.336Z,962.60
2019-01-28T09:38:19.201Z,962.52
2019-01-28T09:40:11.991Z,962.45
2019-01-28T09:41:11.859Z,962.47
2019-01-28T09:43:04.756Z,962.54
2019-01-28T09:44:04.624Z,962.49
2019-01-28T09:45:57.497Z,962.54
2019-01-28T09:46:57.350Z,962.54
2019-01-28T09:48:50.767Z,962.57
2019-01-28T09:49:50.680Z,962.48
2019-01-28T09:51:43.541Z,962.57
2019-01-28T09:52:43.363Z,962.55
2019-01-28T09:54:36.242Z,962.62
2019-01-28T09:55:36.111Z,962.54
2019-01-28T09:57:29.003Z,962.67
2019-01-28T09:58:28.863Z,962.69
2019-01-28T10:00:21.747Z,962.87
2019-01-28T10:01:21.622Z,962.62
2019-01-28T10:03:14.489Z,962.71
2019-01-28T10:04:14.366Z,962.73
2019-01-28T10:06:07.243Z,962.76
2019-01-28T10:07:07.116Z,962.81
2019-01-28T10:08:59.999Z,962.83
2019-01-28T10:09:59.861Z,962.86
2019-01-28T10:11:53.165Z,962.95
2019-01-28T10:12:53.023Z,962.85
2019-01-28T10:14:45.903Z,962.87
2019-01-28T10:15:45.786Z,962.90
2019-01-28T10:17:38.650Z,962.94
2019-01-28T10:18:41.949Z,962.95
2019-01-28T10:20:31.862Z,962.99
2019-01-28T10:21:31.690Z,963.04
2019-01-28T10:23:26.109Z,963.04
2019-01-28T10:24:24.433Z,963.03
2019-01-28T10:26:17.330Z,962.96
2019-01-28T10:27:17.181Z,962.95
2019-01-28T10:29:10.081Z,962.90
2019-01-28T10:30:09.932Z,962.96
2019-01-28T10:32:02.834Z,963.09
2019-01-28T10:33:02.959Z,962.90
2019-01-28T10:34:55.552Z,962.90
2019-01-28T10:35:55.424Z,962.91
2019-01-28T10:37:48.310Z,962.92
2019-01-28T10:38:48.191Z,962.92
2019-01-28T10:40:41.057Z,962.89
2019-01-28T10:41:40.932Z,962.95
2019-01-28T10:43:33.822Z,962.98
2019-01-28T10:44:33.674Z,962.94
2019-01-28T10:46:26.558Z,962.91
2019-01-28T10:47:26.424Z,962.94
2019-01-28T10:49:19.310Z,962.85
2019-01-28T10:50:19.184Z,962.86
2019-01-28T10:52:12.064Z,962.83
2019-01-28T10:53:11.938Z,962.80
2019-01-28T10:55:04.821Z,962.81
2019-01-28T10:56:04.672Z,962.78
2019-01-28T10:57:57.561Z,962.81
2019-01-28T10:58:57.422Z,962.87
2019-01-28T11:00:50.614Z,962.94
2019-01-28T11:01:50.486Z,963.00
2019-01-28T11:03:43.394Z,962.89
2019-01-28T11:04:43.236Z,962.90
2019-01-28T11:06:36.112Z,962.99
2019-01-28T11:07:35.988Z,963.02
2019-01-28T11:09:28.875Z,963.01
2019-01-28T11:10:28.722Z,963.06
2019-01-28T11:12:21.737Z,963.03
2019-01-28T11:13:21.482Z,963.08
2019-01-28T11:15:14.489Z,963.13
2019-01-28T11:16:14.270Z,963.09
2019-01-28T11:18:07.158Z,963.08
2019-01-28T11:19:07.089Z,963.09
2019-01-28T11:20:59.861Z,963.03
2019-01-28T11:21:59.749Z,963.09
2019-01-28T11:23:52.654Z,963.14
2019-01-28T11:24:52.495Z,963.05
2019-01-28T11:26:45.433Z,963.10
2019-01-28T11:27:45.246Z,963.04
2019-01-28T11:29:38.260Z,963.12
2019-01-28T11:30:38.040Z,963.08
2019-01-28T11:32:30.942Z,963.12
2019-01-28T11:33:30.798Z,963.14
2019-01-28T11:35:23.605Z,963.13
2019-01-28T11:36:23.648Z,963.09
2019-01-28T11:38:16.385Z,963.15
2019-01-28T11:39:16.274Z,963.11
2019-01-28T11:41:09.142Z,963.16
2019-01-28T11:42:09.005Z,963.17
2019-01-28T11:44:03.437Z,963.27
2019-01-28T11:45:03.160Z,963.27
2019-01-28T11:46:56.106Z,963.30
2019-01-28T11:47:55.918Z,963.29
2019-01-28T11:49:48.788Z,963.34
2019-01-28T11:50:55.925Z,963.33
2019-01-28T11:52:41.535Z,963.43
2019-01-28T11:53:41.419Z,963.35
2019-01-28T11:55:34.314Z,963.38
2019-01-28T11:56:34.153Z,963.42
2019-01-28T11:58:27.036Z,963.38
2019-01-28T11:59:26.906Z,963.41
2019-01-28T12:01:19.778Z,963.41
2019-01-28T12:02:19.658Z,963.48
2019-01-28T12:04:12.530Z,963.41
2019-01-28T12:05:12.404Z,963.45
2019-01-28T12:07:05.299Z,963.52
2019-01-28T12:08:05.168Z,963.53
2019-01-28T12:09:58.066Z,963.55
2019-01-28T12:10:57.900Z,963.58
2019-01-28T12:12:50.818Z,963.56
2019-01-28T12:13:50.652Z,963.58
2019-01-28T12:15:43.542Z,963.63
2019-01-28T12:16:43.426Z,963.62
2019-01-28T12:18:36.826Z,963.62
2019-01-28T12:19:36.666Z,963.63
2019-01-28T12:21:29.560Z,963.63
2019-01-28T12:22:29.414Z,963.63
2019-01-28T12:24:22.806Z,963.76
2019-01-28T12:25:22.676Z,963.69
2019-01-28T12:27:15.589Z,963.77
2019-01-28T12:28:15.426Z,963.73
2019-01-28T12:30:08.306Z,963.73
2019-01-28T12:31:08.182Z,963.81
2019-01-28T12:33:01.068Z,963.80
2019-01-28T12:34:00.927Z,963.88
2019-01-28T12:35:53.821Z,963.84
2019-01-28T12:36:53.674Z,963.89
2019-01-28T12:38:46.573Z,963.94
2019-01-28T12:39:46.441Z,963.94
2019-01-28T12:41:39.328Z,963.95
2019-01-28T12:42:39.182Z,963.94
2019-01-28T12:44:32.577Z,963.99
2019-01-28T12:45:32.449Z,963.99
2019-01-28T12:47:25.318Z,964.02
2019-01-28T12:48:25.199Z,964.02
2019-01-28T12:50:18.103Z,964.00
2019-01-28T12:51:17.953Z,964.04
2019-01-28T12:53:10.807Z,964.01
2019-01-28T12:54:10.707Z,964.03
2019-01-28T12:56:03.560Z,964.08
2019-01-28T12:57:03.458Z,964.05
2019-01-28T12:58:56.337Z,964.04
2019-01-28T12:59:56.206Z,964.02
2019-01-28T13:01:49.075Z,964.01
2019-01-28T13:02:48.947Z,963.97
2019-01-28T13:04:42.390Z,964.02
2019-01-28T13:05:41.689Z,964.05
2019-01-28T13:07:34.691Z,963.99
2019-01-28T13:08:34.552Z,964.05
2019-01-28T13:10:27.413Z,964.08
2019-01-28T13:11:27.288Z,964.12
2019-01-28T13:13:20.178Z,964.14
2019-01-28T13:14:20.064Z,964.13
2019-01-28T13:16:12.934Z,964.19
2019-01-28T13:17:12.787Z,964.23
2019-01-28T13:19:05.664Z,964.23
2019-01-28T13:20:05.553Z,964.30
2019-01-28T13:21:58.419Z,964.33
2019-01-28T13:22:58.283Z,964.35
2019-01-28T13:24:51.161Z,964.36
2019-01-28T13:25:51.049Z,964.36
2019-01-28T13:27:43.939Z,964.36
2019-01-28T13:28:43.806Z,964.40
2019-01-28T13:30:36.676Z,964.41
2019-01-28T13:31:38.061Z,964.45
2019-01-28T13:33:30.074Z,964.45
2019-01-28T13:34:29.282Z,964.42
2019-01-28T13:36:22.329Z,964.47
2019-01-28T13:37:22.155Z,964.49
2019-01-28T13:39:14.916Z,964.48
2019-01-28T13:40:14.790Z,964.49
2019-01-28T13:42:07.871Z,964.52
2019-01-28T13:43:07.742Z,964.53
2019-01-28T13:45:00.632Z,964.55
2019-01-28T13:46:00.524Z,964.66
2019-01-28T13:47:53.366Z,964.65
2019-01-28T13:48:53.247Z,964.69
2019-01-28T13:50:46.982Z,964.74
2019-01-28T13:51:45.998Z,964.71
2019-01-28T13:53:38.862Z,964.75
2019-01-28T13:54:38.777Z,964.73
2019-01-28T13:56:31.633Z,964.74
2019-01-28T13:57:31.521Z,964.81
2019-01-28T13:59:24.379Z,964.84
2019-01-28T14:00:24.293Z,964.84
2019-01-28T14:02:17.127Z,964.87
2019-01-28T14:03:17.000Z,964.90
2019-01-28T14:05:09.857Z,964.97
2019-01-28T14:06:09.747Z,964.93
2019-01-28T14:08:02.617Z,965.01
2019-01-28T14:09:02.513Z,964.95
2019-01-28T14:10:55.391Z,964.96
2019-01-28T14:11:55.235Z,964.99
2019-01-28T14:13:48.111Z,964.97
2019-01-28T14:14:47.989Z,965.00
2019-01-28T14:16:40.863Z,965.01
2019-01-28T14:17:40.731Z,964.97
2019-01-28T14:19:33.601Z,965.06
2019-01-28T14:20:33.498Z,965.04
2019-01-28T14:22:26.368Z,965.05
2019-01-28T14:23:26.250Z,965.08
2019-01-28T14:25:19.121Z,965.11
2019-01-28T14:26:18.987Z,965.12
2019-01-28T14:28:11.882Z,965.17
2019-01-28T14:29:11.748Z,965.19
2019-01-28T14:31:04.611Z,965.24
2019-01-28T14:32:04.492Z,965.25
2019-01-28T14:33:57.357Z,965.30
2019-01-28T14:34:57.226Z,965.30
2019-01-28T14:36:50.130Z,965.33
2019-01-28T14:37:49.988Z,965.26
2019-01-28T14:39:42.861Z,965.33
2019-01-28T14:40:42.729Z,965.34
2019-01-28T14:42:35.614Z,965.38
2019-01-28T14:43:35.479Z,965.40
2019-01-28T14:45:28.366Z,965.39
2019-01-28T14:46:28.270Z,965.44
2019-01-28T14:48:21.118Z,965.44
2019-01-28T14:49:20.984Z,965.44
2019-01-28T14:51:13.898Z,965.49
2019-01-28T14:52:13.728Z,965.50
2019-01-28T14:54:06.603Z,965.55
2019-01-28T14:55:06.478Z,965.57
2019-01-28T14:56:59.398Z,965.57
2019-01-28T14:57:59.234Z,965.57
2019-01-28T14:59:52.644Z,965.61
2019-01-28T15:00:52.506Z,965.60
2019-01-28T15:02:45.398Z,965.62
2019-01-28T15:03:45.234Z,965.65
2019-01-28T15:05:38.122Z,965.64
2019-01-28T15:06:37.986Z,965.64
2019-01-28T15:08:30.892Z,965.68
2019-01-28T15:09:30.754Z,965.72
2019-01-28T15:11:23.614Z,965.72
2019-01-28T15:12:23.488Z,965.73
2019-01-28T15:14:16.366Z,965.78
2019-01-28T15:15:16.252Z,965.78
2019-01-28T15:17:09.631Z,965.82
2019-01-28T15:18:09.510Z,965.84
2019-01-28T15:20:02.871Z,965.86
2019-01-28T15:21:02.239Z,965.87
2019-01-28T15:22:55.130Z,965.92
2019-01-28T15:23:54.995Z,965.94
2019-01-28T15:25:47.892Z,965.99
2019-01-28T15:26:47.774Z,965.95
2019-01-28T15:28:40.632Z,966.02
2019-01-28T15:29:40.517Z,966.05
2019-01-28T15:31:33.376Z,966.11
2019-01-28T15:32:33.252Z,966.10
2019-01-28T15:34:26.236Z,966.14
2019-01-28T15:35:25.999Z,966.15
2019-01-28T15:37:18.873Z,966.18
2019-01-28T15:38:18.761Z,966.24
2019-01-28T15:40:13.820Z,966.24
2019-01-28T15:41:11.493Z,966.22
2019-01-28T15:43:05.406Z,966.25
2019-01-28T15:44:05.285Z,966.25
2019-01-28T15:45:58.145Z,966.30
2019-01-28T15:46:58.015Z,966.30
2019-01-28T15:48:50.916Z,966.41
2019-01-28T15:49:50.787Z,966.37
2019-01-28T15:51:43.657Z,966.37
2019-01-28T15:52:43.524Z,966.44
2019-01-28T15:54:36.905Z,966.54
2019-01-28T15:55:36.779Z,966.51
2019-01-28T15:57:29.672Z,966.56
2019-01-28T15:58:29.520Z,966.60
2019-01-28T16:00:22.519Z,966.63
2019-01-28T16:01:22.383Z,966.61
2019-01-28T16:03:15.294Z,966.69
2019-01-28T16:04:15.136Z,966.71
2019-01-28T16:06:08.022Z,966.71
2019-01-28T16:07:07.871Z,966.77
2019-01-28T16:09:00.778Z,966.77
2019-01-28T16:10:00.628Z,966.82
2019-01-28T16:11:53.506Z,966.82
2019-01-28T16:12:53.385Z,966.83
2019-01-28T16:14:46.258Z,966.89
2019-01-28T16:15:46.129Z,966.93
2019-01-28T16:17:39.033Z,966.92
2019-01-28T16:18:38.879Z,966.94
2019-01-28T16:20:31.853Z,966.97
2019-01-28T16:21:31.724Z,967.07
2019-01-28T16:23:24.613Z,967.06
2019-01-28T16:24:24.488Z,967.06
2019-01-28T16:26:17.368Z,967.17
2019-01-28T16:27:17.233Z,967.20
2019-01-28T16:29:10.105Z,967.19
2019-01-28T16:30:09.970Z,967.22
2019-01-28T16:32:03.256Z,967.24
2019-01-28T16:33:03.130Z,967.28
2019-01-28T16:34:56.030Z,967.36
2019-01-28T16:35:55.885Z,967.35
2019-01-28T16:37:48.782Z,967.39
2019-01-28T16:38:48.637Z,967.40
2019-01-28T16:40:41.946Z,967.47
2019-01-28T16:41:41.810Z,967.50
2019-01-28T16:43:34.666Z,967.53
2019-01-28T16:44:34.544Z,967.56
2019-01-28T16:46:27.728Z,967.60
2019-01-28T16:47:27.624Z,967.66
2019-01-28T16:49:20.611Z,967.69
2019-01-28T16:50:26.691Z,967.64
2019-01-28T16:52:13.339Z,967.70
2019-01-28T16:53:13.199Z,967.72
2019-01-28T16:55:06.101Z,967.74
2019-01-28T16:56:05.952Z,967.72
2019-01-28T16:57:58.833Z,967.73
2019-01-28T16:58:58.702Z,967.79
2019-01-28T17:00:51.583Z,967.76
2019-01-28T17:01:51.482Z,967.77
2019-01-28T17:03:44.358Z,967.78
2019-01-28T17:04:44.210Z,967.80
2019-01-28T17:06:37.565Z,967.83
2019-01-28T17:07:36.941Z,967.79
2019-01-28T17:09:29.832Z,967.89
2019-01-28T17:10:29.696Z,967.85
2019-01-28T17:12:22.591Z,967.93
2019-01-28T17:13:22.444Z,967.82
2019-01-28T17:15:15.315Z,967.90
2019-01-28T17:16:15.200Z,967.90
2019-01-28T17:18:08.077Z,967.95
2019-01-28T17:19:07.971Z,967.96
2019-01-28T17:21:00.845Z,967.99
2019-01-28T17:22:00.693Z,968.05
2019-01-28T17:23:53.588Z,967.99
2019-01-28T17:24:53.447Z,968.03
2019-01-28T17:26:46.333Z,968.04
2019-01-28T17:27:46.195Z,968.05
2019-01-28T17:29:39.199Z,968.11
2019-01-28T17:30:38.960Z,968.14
2019-01-28T17:32:31.847Z,968.13
2019-01-28T17:33:31.703Z,968.18
2019-01-28T17:35:24.720Z,968.23
2019-01-28T17:36:24.553Z,968.27
2019-01-28T17:38:17.433Z,968.30
2019-01-28T17:39:17.305Z,968.29
2019-01-28T17:41:10.187Z,968.30
2019-01-28T17:42:10.046Z,968.33
2019-01-28T17:44:02.938Z,968.35
2019-01-28T17:45:02.800Z,968.41
2019-01-28T17:46:55.716Z,968.48
2019-01-28T17:47:55.550Z,968.47
2019-01-28T17:49:48.441Z,968.50
2019-01-28T17:50:48.332Z,968.54
2019-01-28T17:52:41.182Z,968.52
2019-01-28T17:53:41.057Z,968.59
2019-01-28T17:55:33.932Z,968.63
2019-01-28T17:56:33.799Z,968.66
2019-01-28T17:58:26.826Z,968.62